Vohburg — V2OW7 — position and weather

sailwx.info

Track history (hours):
 
Tides and Currents Weather Stations Pressure Air Temp Water Temp Dewpoint Dewpoint Depression Visibility Wind Speed Wind Dir Waves Ship Positions

Vohburg

Last reported at 2016-May-28 10:04 UTC. Time now 2016-May-29 23:05 UTC.
Position N 59°05' E 021°34'.

Length 140 m; draft 6.5 m.

Type: Cargo ship. MMSI: 305773000.

Date/timePositionNaut miles runAvg speedWind from/ knotsBaromVisibWave heightAir tempDewpointWater temp
2016-May-28 10:04N 59°05' E 021°34'3016.6
2016-May-28 08:16N 59°25' E 022°18'1216.9
2016-May-28 07:33N 59°32' E 022°38'1717.1
2016-May-28 06:33N 59°37' E 023°10'1716.9
2016-May-28 05:33N 59°42' E 023°42'7517.0
2016-May-28 01:06N 59°58' E 026°09'917.0
2016-May-28 00:33N 60°01' E 026°27'10 9.6
2016-May-27 23:33N 60°02' E 026°46'5 4.7
2016-May-27 22:32N 59°60' E 026°54'1616.7
2016-May-27 21:33N 60°06' E 027°25'1615.9
2016-May-27 20:33N 60°11' E 027°55'1616.4
2016-May-27 19:33N 60°05' E 028°25'3414.9
2016-May-27 17:16N 60°01' E 029°33'5 7.1
2016-May-27 16:33N 59°59' E 029°43'1 1.0
2016-May-27 15:32N 60°00' E 029°43'0 0.0
2016-May-27 14:32N 60°00' E 029°43'0 0.0
2016-May-27 13:29N 60°00' E 029°43'0 0.0
2016-May-27 12:32N 60°00' E 029°43'0 0.0
2016-May-27 11:32N 60°00' E 029°43'0 0.0
2016-May-27 10:32N 60°00' E 029°43'0 0.0
2016-May-27 09:23N 60°00' E 029°43'0 0.0
2016-May-27 08:32N 60°00' E 029°43'0 0.0
2016-May-27 07:29N 60°00' E 029°43'0 0.0
2016-May-27 06:32N 60°00' E 029°43'1 1.5
2016-May-27 05:32N 59°60' E 029°40'1210.0
2016-May-27 04:18N 60°02' E 029°16'6 8.1
2016-May-27 03:33N 60°02' E 029°04'8 8.0
2016-May-27 02:33N 60°02' E 028°48'8 7.8
2016-May-27 01:33N 60°02' E 028°32'8 7.7
2016-May-27 00:33N 60°06' E 028°19'1010.4
2016-May-26 23:33N 60°09' E 027°59'1515.3
2016-May-26 22:33N 60°06' E 027°29'1616.1
2016-May-26 21:33N 59°58' E 027°00'1616.4
2016-May-26 20:34N 59°58' E 026°28'79 4.7
2016-May-26 03:31N 59°39' E 023°55'1717.9
2016-May-26 02:33N 59°34' E 023°22'338 7.5
2016-May-24 05:29N 55°44' E 015°39'1515.9
2016-May-24 04:33N 55°36' E 015°17'1615.9
2016-May-24 03:33N 55°27' E 014°54'1616.0
2016-May-24 02:33N 55°18' E 014°31'1616.1
2016-May-24 01:33N 55°05' E 014°13'1615.6
2016-May-24 00:33N 54°58' E 013°49'1616.0
2016-May-23 23:33N 54°52' E 013°23'1616.2
2016-May-23 22:33N 54°47' E 012°56'1616.2
2016-May-23 21:33N 54°39' E 012°32'1615.6
2016-May-23 20:33N 54°27' E 012°15'1616.1
2016-May-23 19:33N 54°19' E 011°51'1716.5
2016-May-23 18:33N 54°11' E 011°26'20 2.5
2016-May-23 10:26N 54°00' E 010°57'1415.8
2016-May-23 09:33N 54°11' E 011°13'1616.5
2016-May-23 08:33N 54°25' E 011°25'1615.6
2016-May-23 07:34N 54°36' E 011°06'1414.4
2016-May-23 06:33N 54°48' E 010°52'1515.4
2016-May-23 05:33N 55°03' E 011°02'1514.9
2016-May-23 04:33N 55°17' E 011°03'4614.2
2016-May-23 01:17N 56°04' E 011°05'1215.8
2016-May-23 00:31N 56°16' E 011°05'4615.0
2016-May-22 21:27N 57°01' E 010°50'1415.2
2016-May-22 20:33N 57°14' E 010°44'1514.9
2016-May-22 19:33N 57°29' E 010°43'1515.2
2016-May-22 18:33N 57°44' E 010°45'1514.8
2016-May-22 17:33N 57°44' E 010°17'16215.9
2016-May-22 07:22N 55°46' E 006°53'1416.6
2016-May-22 06:33N 55°35' E 006°40'8316.4
2016-May-22 01:30N 54°24' E 005°26'1516.2
2016-May-22 00:33N 54°10' E 005°13'1616.3
2016-May-21 23:33N 53°56' E 005°02'1616.4
2016-May-21 22:33N 53°40' E 004°52'2016.1
2016-May-21 21:18N 53°21' E 004°39'1516.2
2016-May-21 20:22N 53°08' E 004°29'1416.2
2016-May-21 19:32N 52°56' E 004°18'2216.5
2016-May-21 18:13N 52°38' E 003°57'1217.1
2016-May-21 17:33N 52°29' E 003°46'1817.6
2016-May-21 16:31N 52°12' E 003°34'3517.9
2016-May-21 14:33N 51°42' E 003°06'1818.4
2016-May-21 13:33N 51°28' E 002°46'1010.0
2016-May-21 12:33N 51°24' E 003°01'7 7.1
2016-May-21 11:33N 51°21' E 003°11'0 0.0
2016-May-21 10:29N 51°21' E 003°11'0 0.0
2016-May-21 09:26N 51°21' E 003°11'0 0.0
2016-May-21 08:28N 51°21' E 003°11'0 0.0
2016-May-21 07:32N 51°21' E 003°11'0 0.0
2016-May-21 06:21N 51°21' E 003°11'0 0.0
2016-May-21 05:22N 51°21' E 003°11'0 0.0
2016-May-21 04:33N 51°21' E 003°11'0 0.3
2016-May-21 03:33N 51°21' E 003°12'1414.2
2016-May-21 02:34N 51°22' E 002°49'1615.6
2016-May-21 01:32N 51°20' E 002°24'1616.1
2016-May-21 00:34N 51°24' E 001°59'1616.4
2016-May-20 23:34N 51°29' E 001°34'1414.2
2016-May-20 22:33N 51°29' E 001°11'1515.4
2016-May-20 21:34N 51°28' E 000°47'4 4.0
2016-May-20 20:33N 51°26' E 000°41'0 0.0
2016-May-20 19:33N 51°26' E 000°41'0 0.0
2016-May-20 18:33N 51°26' E 000°41'0 0.0
2016-May-20 17:33N 51°26' E 000°41'0 0.0
2016-May-20 16:33N 51°26' E 000°41'0 0.0
2016-May-20 15:33N 51°26' E 000°41'0 0.0
2016-May-20 14:33N 51°26' E 000°41'0 0.0
2016-May-20 13:33N 51°26' E 000°41'0 0.0
2016-May-20 12:33N 51°26' E 000°41'0 0.0
2016-May-20 11:33N 51°26' E 000°41'0 0.0
2016-May-20 10:33N 51°26' E 000°41'0 0.0
2016-May-20 09:33N 51°26' E 000°41'1212.4
2016-May-20 08:34N 51°29' E 001°00'1515.1
2016-May-20 07:33N 51°28' E 001°24'3 2.9
2016-May-20 06:33N 51°27' E 001°29'3 2.6
2016-May-20 05:33N 51°25' E 001°30'10 9.7
2016-May-20 04:33N 51°33' E 001°39'1616.2
2016-May-20 03:33N 51°49' E 001°45'1615.5
2016-May-20 02:33N 52°04' E 001°47'1515.4
2016-May-20 01:33N 52°19' E 001°51'1514.9
2016-May-20 00:33N 52°34' E 001°55'1413.9
2016-May-19 23:33N 52°48' E 001°50'1515.5
2016-May-19 22:33N 52°59' E 001°31'1615.9
2016-May-19 21:33N 53°11' E 001°16'1616.1
2016-May-19 20:34N 53°26' E 001°05'3316.0
2016-May-19 18:31N 53°52' E 000°31'1616.6
2016-May-19 17:33N 54°02' E 000°10'1717.1
2016-May-19 16:33N 54°15' W 000°09'1717.4
2016-May-19 15:33N 54°29' W 000°27'1717.3
2016-May-19 14:33N 54°38' W 000°52'10 1.8
2016-May-19 09:07N 54°36' W 001°09'0 0.0
2016-May-19 08:29N 54°36' W 001°09'4 4.5
2016-May-19 07:34N 54°40' W 001°07'8 7.6
2016-May-19 06:34N 54°42' W 000°55'0 0.1
2016-May-19 05:31N 54°42' W 000°55'0 0.1
2016-May-19 04:33N 54°42' W 000°55'0 0.0
2016-May-19 03:34N 54°42' W 000°55'0 0.0
2016-May-19 02:33N 54°42' W 000°55'0 0.0
2016-May-19 01:30N 54°42' W 000°55'0 0.0
2016-May-19 00:33N 54°42' W 000°55'0 0.1
2016-May-18 23:33N 54°42' W 000°55'0 0.1
2016-May-18 22:33N 54°42' W 000°55'0 0.0
2016-May-18 21:33N 54°42' W 000°55'0 0.0
2016-May-18 20:33N 54°42' W 000°55'0 0.0
2016-May-18 19:33N 54°42' W 000°55'0 0.0
2016-May-18 18:33N 54°42' W 000°55'0 0.0
2016-May-18 17:33N 54°42' W 000°55'0 0.0
2016-May-18 16:33N 54°42' W 000°55'0 0.0
2016-May-18 15:33N 54°42' W 000°55'0 0.1
2016-May-18 14:33N 54°42' W 000°55'0 0.1
2016-May-18 13:33N 54°42' W 000°55'0 0.0
2016-May-18 12:33N 54°42' W 000°55'0 0.0
2016-May-18 11:33N 54°42' W 000°55'0 0.2
2016-May-18 10:33N 54°42' W 000°55'  
Track history (hours):
 
Tides and Currents Weather Stations Pressure Air Temp Water Temp Dewpoint Dewpoint Depression Visibility Wind Speed Wind Dir Waves Ship Positions

Vohburg

Last reported at 2016-May-28 10:04 UTC. Time now 2016-May-29 23:05 UTC.
Position N 59°05' E 021°34'.

Length 140 m; draft 6.5 m.

Type: Cargo ship. MMSI: 305773000.

Date/timePositionNaut miles runAvg speedWind from/ knotsBaromVisibWave heightAir tempDewpointWater temp
2016-May-28 10:04N 59°05' E 021°34'3016.6
2016-May-28 08:16N 59°25' E 022°18'1216.9
2016-May-28 07:33N 59°32' E 022°38'1717.1
2016-May-28 06:33N 59°37' E 023°10'1716.9
2016-May-28 05:33N 59°42' E 023°42'7517.0
2016-May-28 01:06N 59°58' E 026°09'917.0
2016-May-28 00:33N 60°01' E 026°27'10 9.6
2016-May-27 23:33N 60°02' E 026°46'5 4.7
2016-May-27 22:32N 59°60' E 026°54'1616.7
2016-May-27 21:33N 60°06' E 027°25'1615.9
2016-May-27 20:33N 60°11' E 027°55'1616.4
2016-May-27 19:33N 60°05' E 028°25'3414.9
2016-May-27 17:16N 60°01' E 029°33'5 7.1
2016-May-27 16:33N 59°59' E 029°43'1 1.0
2016-May-27 15:32N 60°00' E 029°43'0 0.0
2016-May-27 14:32N 60°00' E 029°43'0 0.0
2016-May-27 13:29N 60°00' E 029°43'0 0.0
2016-May-27 12:32N 60°00' E 029°43'0 0.0
2016-May-27 11:32N 60°00' E 029°43'0 0.0
2016-May-27 10:32N 60°00' E 029°43'0 0.0
2016-May-27 09:23N 60°00' E 029°43'0 0.0
2016-May-27 08:32N 60°00' E 029°43'0 0.0
2016-May-27 07:29N 60°00' E 029°43'0 0.0
2016-May-27 06:32N 60°00' E 029°43'1 1.5
2016-May-27 05:32N 59°60' E 029°40'1210.0
2016-May-27 04:18N 60°02' E 029°16'6 8.1
2016-May-27 03:33N 60°02' E 029°04'8 8.0
2016-May-27 02:33N 60°02' E 028°48'8 7.8
2016-May-27 01:33N 60°02' E 028°32'8 7.7
2016-May-27 00:33N 60°06' E 028°19'1010.4
2016-May-26 23:33N 60°09' E 027°59'1515.3
2016-May-26 22:33N 60°06' E 027°29'1616.1
2016-May-26 21:33N 59°58' E 027°00'1616.4
2016-May-26 20:34N 59°58' E 026°28'79 4.7
2016-May-26 03:31N 59°39' E 023°55'1717.9
2016-May-26 02:33N 59°34' E 023°22'338 7.5
2016-May-24 05:29N 55°44' E 015°39'1515.9
2016-May-24 04:33N 55°36' E 015°17'1615.9
2016-May-24 03:33N 55°27' E 014°54'1616.0
2016-May-24 02:33N 55°18' E 014°31'1616.1
2016-May-24 01:33N 55°05' E 014°13'1615.6
2016-May-24 00:33N 54°58' E 013°49'1616.0
2016-May-23 23:33N 54°52' E 013°23'1616.2
2016-May-23 22:33N 54°47' E 012°56'1616.2
2016-May-23 21:33N 54°39' E 012°32'1615.6
2016-May-23 20:33N 54°27' E 012°15'1616.1
2016-May-23 19:33N 54°19' E 011°51'1716.5
2016-May-23 18:33N 54°11' E 011°26'20 2.5
2016-May-23 10:26N 54°00' E 010°57'1415.8
2016-May-23 09:33N 54°11' E 011°13'1616.5
2016-May-23 08:33N 54°25' E 011°25'1615.6
2016-May-23 07:34N 54°36' E 011°06'1414.4
2016-May-23 06:33N 54°48' E 010°52'1515.4
2016-May-23 05:33N 55°03' E 011°02'1514.9
2016-May-23 04:33N 55°17' E 011°03'4614.2
2016-May-23 01:17N 56°04' E 011°05'1215.8
2016-May-23 00:31N 56°16' E 011°05'4615.0
2016-May-22 21:27N 57°01' E 010°50'1415.2
2016-May-22 20:33N 57°14' E 010°44'1514.9
2016-May-22 19:33N 57°29' E 010°43'1515.2
2016-May-22 18:33N 57°44' E 010°45'1514.8
2016-May-22 17:33N 57°44' E 010°17'16215.9
2016-May-22 07:22N 55°46' E 006°53'1416.6
2016-May-22 06:33N 55°35' E 006°40'8316.4
2016-May-22 01:30N 54°24' E 005°26'1516.2
2016-May-22 00:33N 54°10' E 005°13'1616.3
2016-May-21 23:33N 53°56' E 005°02'1616.4
2016-May-21 22:33N 53°40' E 004°52'2016.1
2016-May-21 21:18N 53°21' E 004°39'1516.2
2016-May-21 20:22N 53°08' E 004°29'1416.2
2016-May-21 19:32N 52°56' E 004°18'2216.5
2016-May-21 18:13N 52°38' E 003°57'1217.1
2016-May-21 17:33N 52°29' E 003°46'1817.6
2016-May-21 16:31N 52°12' E 003°34'3517.9
2016-May-21 14:33N 51°42' E 003°06'1818.4
2016-May-21 13:33N 51°28' E 002°46'1010.0
2016-May-21 12:33N 51°24' E 003°01'7 7.1
2016-May-21 11:33N 51°21' E 003°11'0 0.0
2016-May-21 10:29N 51°21' E 003°11'0 0.0
2016-May-21 09:26N 51°21' E 003°11'0 0.0
2016-May-21 08:28N 51°21' E 003°11'0 0.0
2016-May-21 07:32N 51°21' E 003°11'0 0.0
2016-May-21 06:21N 51°21' E 003°11'0 0.0
2016-May-21 05:22N 51°21' E 003°11'0 0.0
2016-May-21 04:33N 51°21' E 003°11'0 0.3
2016-May-21 03:33N 51°21' E 003°12'1414.2
2016-May-21 02:34N 51°22' E 002°49'1615.6
2016-May-21 01:32N 51°20' E 002°24'1616.1
2016-May-21 00:34N 51°24' E 001°59'1616.4
2016-May-20 23:34N 51°29' E 001°34'1414.2
2016-May-20 22:33N 51°29' E 001°11'1515.4
2016-May-20 21:34N 51°28' E 000°47'4 4.0
2016-May-20 20:33N 51°26' E 000°41'0 0.0
2016-May-20 19:33N 51°26' E 000°41'0 0.0
2016-May-20 18:33N 51°26' E 000°41'0 0.0
2016-May-20 17:33N 51°26' E 000°41'0 0.0
2016-May-20 16:33N 51°26' E 000°41'0 0.0
2016-May-20 15:33N 51°26' E 000°41'0 0.0
2016-May-20 14:33N 51°26' E 000°41'0 0.0
2016-May-20 13:33N 51°26' E 000°41'0 0.0
2016-May-20 12:33N 51°26' E 000°41'0 0.0
2016-May-20 11:33N 51°26' E 000°41'0 0.0
2016-May-20 10:33N 51°26' E 000°41'0 0.0
2016-May-20 09:33N 51°26' E 000°41'1212.4
2016-May-20 08:34N 51°29' E 001°00'1515.1
2016-May-20 07:33N 51°28' E 001°24'3 2.9
2016-May-20 06:33N 51°27' E 001°29'3 2.6
2016-May-20 05:33N 51°25' E 001°30'10 9.7
2016-May-20 04:33N 51°33' E 001°39'1616.2
2016-May-20 03:33N 51°49' E 001°45'1615.5
2016-May-20 02:33N 52°04' E 001°47'1515.4
2016-May-20 01:33N 52°19' E 001°51'1514.9
2016-May-20 00:33N 52°34' E 001°55'1413.9
2016-May-19 23:33N 52°48' E 001°50'1515.5
2016-May-19 22:33N 52°59' E 001°31'1615.9
2016-May-19 21:33N 53°11' E 001°16'1616.1
2016-May-19 20:34N 53°26' E 001°05'3316.0
2016-May-19 18:31N 53°52' E 000°31'1616.6
2016-May-19 17:33N 54°02' E 000°10'1717.1
2016-May-19 16:33N 54°15' W 000°09'1717.4
2016-May-19 15:33N 54°29' W 000°27'1717.3
2016-May-19 14:33N 54°38' W 000°52'10 1.8
2016-May-19 09:07N 54°36' W 001°09'0 0.0
2016-May-19 08:29N 54°36' W 001°09'4 4.5
2016-May-19 07:34N 54°40' W 001°07'8 7.6
2016-May-19 06:34N 54°42' W 000°55'0 0.1
2016-May-19 05:31N 54°42' W 000°55'0 0.1
2016-May-19 04:33N 54°42' W 000°55'0 0.0
2016-May-19 03:34N 54°42' W 000°55'0 0.0
2016-May-19 02:33N 54°42' W 000°55'0 0.0
2016-May-19 01:30N 54°42' W 000°55'0 0.0
2016-May-19 00:33N 54°42' W 000°55'0 0.1
2016-May-18 23:33N 54°42' W 000°55'0 0.1
2016-May-18 22:33N 54°42' W 000°55'0 0.0
2016-May-18 21:33N 54°42' W 000°55'0 0.0
2016-May-18 20:33N 54°42' W 000°55'0 0.0
2016-May-18 19:33N 54°42' W 000°55'0 0.0
2016-May-18 18:33N 54°42' W 000°55'0 0.0
2016-May-18 17:33N 54°42' W 000°55'0 0.0
2016-May-18 16:33N 54°42' W 000°55'0 0.0
2016-May-18 15:33N 54°42' W 000°55'0 0.1
2016-May-18 14:33N 54°42' W 000°55'0 0.1
2016-May-18 13:33N 54°42' W 000°55'0 0.0
2016-May-18 12:33N 54°42' W 000°55'0 0.0
2016-May-18 11:33N 54°42' W 000°55'0 0.2
2016-May-18 10:33N 54°42' W 000°55'  

Dump ship's entire track history